DAL9998 KMEM-KMEM
Flight info
| Callsign | DAL9998 |
|---|---|
| Flight time | 0h 6m |
| Altitude | VFR/013 |
| Route | PATTERNS |
| Aircraft | B36T/L-DOV/C |
Departure
| Time | 2026-05-04 03:28 |
|---|---|
| Airport | Memphis International Airport (KMEM) |
Arrival
| Time | 2026-05-04 03:34 |
|---|---|
| Airport | Memphis International Airport (KMEM) |
| Time | Latitude | Longitude | Altitude | Speed | Heading |
|---|---|---|---|---|---|
| 2026-05-04 03:08 | 35.05478 | -89.98145 | 301 ft | 0 kts | 91° |
| 2026-05-04 03:19 | 35.05475 | -89.98162 | 293 ft | 14 kts | 209° |
| 2026-05-04 03:19 | 35.05469 | -89.98179 | 290 ft | 0 kts | 276° |
| 2026-05-04 03:20 | 35.05472 | -89.98193 | 289 ft | 0 kts | 280° |
| 2026-05-04 03:20 | 35.05476 | -89.98212 | 288 ft | 12 kts | 284° |
| 2026-05-04 03:20 | 35.05531 | -89.98365 | 283 ft | 20 kts | 330° |
| 2026-05-04 03:20 | 35.05571 | -89.98452 | 281 ft | 0 kts | 269° |
| 2026-05-04 03:22 | 35.05560 | -89.98505 | 280 ft | 16 kts | 221° |
| 2026-05-04 03:22 | 35.05421 | -89.98512 | 280 ft | 39 kts | 180° |
| 2026-05-04 03:22 | 35.05160 | -89.98508 | 289 ft | 34 kts | 173° |
| 2026-05-04 03:22 | 35.04973 | -89.98572 | 294 ft | 19 kts | 278° |
| 2026-05-04 03:23 | 35.04937 | -89.98633 | 293 ft | 8 kts | 239° |
| 2026-05-04 03:23 | 35.04935 | -89.98638 | 294 ft | 0 kts | 261° |
| 2026-05-04 03:23 | 35.04935 | -89.98642 | 294 ft | 4 kts | 256° |
| 2026-05-04 03:24 | 35.04934 | -89.98645 | 293 ft | 0 kts | 266° |
| 2026-05-04 03:27 | 35.04933 | -89.98683 | 293 ft | 12 kts | 260° |
| 2026-05-04 03:28 | 35.04807 | -89.98740 | 292 ft | 50 kts | 180° |
| 2026-05-04 03:28 | 35.04139 | -89.98713 | 451 ft | 133 kts | 182° |
| 2026-05-04 03:28 | 35.03078 | -89.98712 | 957 ft | 167 kts | 180° |
| 2026-05-04 03:28 | 35.01855 | -89.98723 | 1172 ft | 192 kts | 193° |
| 2026-05-04 03:29 | 35.00894 | -89.99451 | 1305 ft | 124 kts | 231° |
| 2026-05-04 03:29 | 35.01021 | -90.00338 | 902 ft | 120 kts | 330° |
| 2026-05-04 03:29 | 35.01981 | -90.00347 | 788 ft | 137 kts | 5° |
| 2026-05-04 03:29 | 35.02890 | -90.00191 | 794 ft | 140 kts | 5° |
| 2026-05-04 03:30 | 35.03833 | -90.00060 | 821 ft | 137 kts | 5° |
| 2026-05-04 03:30 | 35.04791 | -89.99944 | 760 ft | 137 kts | 1° |
| 2026-05-04 03:30 | 35.05694 | -89.99850 | 649 ft | 124 kts | 17° |
| 2026-05-04 03:30 | 35.06074 | -89.99150 | 628 ft | 102 kts | 115° |
| 2026-05-04 03:31 | 35.05478 | -89.98788 | 468 ft | 98 kts | 176° |
| 2026-05-04 03:31 | 35.04806 | -89.98742 | 306 ft | 92 kts | 182° |
| 2026-05-04 03:31 | 35.04250 | -89.98731 | 290 ft | 81 kts | 179° |
| 2026-05-04 03:31 | 35.03555 | -89.98702 | 495 ft | 116 kts | 182° |
| 2026-05-04 03:32 | 35.02701 | -89.98700 | 649 ft | 124 kts | 181° |
| 2026-05-04 03:32 | 35.01948 | -89.98829 | 687 ft | 98 kts | 225° |
| 2026-05-04 03:32 | 35.01778 | -89.99667 | 747 ft | 116 kts | 272° |
| 2026-05-04 03:32 | 35.02252 | -90.00440 | 679 ft | 124 kts | 343° |
| 2026-05-04 03:33 | 35.03188 | -90.00459 | 741 ft | 145 kts | 2° |
| 2026-05-04 03:33 | 35.04218 | -90.00398 | 728 ft | 144 kts | 1° |
| 2026-05-04 03:33 | 35.05156 | -90.00345 | 691 ft | 129 kts | 3° |
| 2026-05-04 03:33 | 35.05938 | -90.00056 | 674 ft | 110 kts | 50° |
| 2026-05-04 03:34 | 35.05912 | -89.99247 | 614 ft | 103 kts | 132° |
| 2026-05-04 03:34 | 35.05338 | -89.98800 | 455 ft | 100 kts | 172° |
| 2026-05-04 03:34 | 35.04690 | -89.98741 | 295 ft | 80 kts | 182° |
| 2026-05-04 03:34 | 35.04271 | -89.98731 | 289 ft | 29 kts | 178° |
| 2026-05-04 03:35 | 35.04115 | -89.98727 | 293 ft | 29 kts | 179° |
| 2026-05-04 03:35 | 35.03792 | -89.98720 | 302 ft | 84 kts | 179° |
| 2026-05-04 03:35 | 35.02971 | -89.98699 | 561 ft | 147 kts | 182° |
| 2026-05-04 03:35 | 35.01898 | -89.98693 | 866 ft | 158 kts | 181° |
| 2026-05-04 03:36 | 35.01120 | -89.99163 | 1017 ft | 116 kts | 248° |
| 2026-05-04 03:36 | 35.01336 | -90.00068 | 956 ft | 122 kts | 320° |
| 2026-05-04 03:36 | 35.02203 | -90.00266 | 800 ft | 136 kts | 360° |
| 2026-05-04 03:36 | 35.03134 | -90.00234 | 695 ft | 129 kts | 0° |
| 2026-05-04 03:37 | 35.04000 | -90.00169 | 640 ft | 126 kts | 5° |
| 2026-05-04 03:37 | 35.04902 | -90.00031 | 662 ft | 124 kts | 11° |
| 2026-05-04 03:37 | 35.05573 | -89.99611 | 633 ft | 103 kts | 74° |
| 2026-05-04 03:37 | 35.05305 | -89.98854 | 450 ft | 99 kts | 152° |
| 2026-05-04 03:38 | 35.04677 | -89.98740 | 300 ft | 86 kts | 185° |
| 2026-05-04 03:38 | 35.04153 | -89.98729 | 296 ft | 63 kts | 178° |
| 2026-05-04 03:38 | 35.03830 | -89.98721 | 303 ft | 36 kts | 178° |
| 2026-05-04 03:38 | 35.03671 | -89.98697 | 307 ft | 15 kts | 132° |
| 2026-05-04 03:39 | 35.03660 | -89.98611 | 307 ft | 0 kts | 86° |
| 2026-05-04 03:39 | 35.03660 | -89.98606 | 307 ft | 0 kts | 89° |
| 2026-05-04 03:41 | 35.03660 | -89.98604 | 307 ft | 3 kts | 88° |
| 2026-05-04 03:41 | 35.03745 | -89.98585 | 304 ft | 15 kts | 358° |
| 2026-05-04 03:41 | 35.03913 | -89.98589 | 297 ft | 31 kts | 0° |
| 2026-05-04 03:41 | 35.04144 | -89.98593 | 293 ft | 40 kts | 359° |
| 2026-05-04 03:42 | 35.04460 | -89.98601 | 293 ft | 49 kts | 358° |
| 2026-05-04 03:42 | 35.04867 | -89.98609 | 293 ft | 48 kts | 2° |
| 2026-05-04 03:42 | 35.05061 | -89.98527 | 292 ft | 30 kts | 11° |
| 2026-05-04 03:42 | 35.05366 | -89.98512 | 282 ft | 74 kts | 359° |
| 2026-05-04 03:43 | 35.05711 | -89.98296 | 287 ft | 46 kts | 50° |
| 2026-05-04 03:43 | 35.05684 | -89.98022 | 296 ft | 20 kts | 96° |
| 2026-05-04 03:43 | 35.05680 | -89.97897 | 300 ft | 20 kts | 93° |
| 2026-05-04 03:43 | 35.05672 | -89.97669 | 308 ft | 34 kts | 92° |
| 2026-05-04 03:44 | 35.05660 | -89.97345 | 302 ft | 32 kts | 88° |
| 2026-05-04 03:44 | 35.05484 | -89.97220 | 303 ft | 34 kts | 180° |
| 2026-05-04 03:44 | 35.05267 | -89.97090 | 299 ft | 38 kts | 156° |
| 2026-05-04 03:44 | 35.05062 | -89.97075 | 313 ft | 35 kts | 180° |
| 2026-05-04 03:45 | 35.04643 | -89.97063 | 320 ft | 77 kts | 181° |
| 2026-05-04 03:45 | 35.04055 | -89.97091 | 307 ft | 77 kts | 181° |
| 2026-05-04 03:45 | 35.03747 | -89.97087 | 306 ft | 27 kts | 179° |
| 2026-05-04 03:45 | 35.03553 | -89.97056 | 305 ft | 21 kts | 181° |
| 2026-05-04 03:46 | 35.03501 | -89.97073 | 304 ft | 0 kts | 201° |
| 2026-05-04 03:46 | 35.03500 | -89.97074 | 304 ft | 3 kts | 200° |
| 2026-05-04 03:46 | 35.03322 | -89.97077 | 302 ft | 42 kts | 178° |
| 2026-05-04 03:46 | 35.02996 | -89.97073 | 293 ft | 49 kts | 178° |
| 2026-05-04 03:47 | 35.02660 | -89.97003 | 291 ft | 48 kts | 174° |
| 2026-05-04 03:47 | 35.02404 | -89.97012 | 290 ft | 16 kts | 245° |
| 2026-05-04 03:47 | 35.02421 | -89.97185 | 286 ft | 23 kts | 271° |
| 2026-05-04 03:47 | 35.02418 | -89.97387 | 288 ft | 22 kts | 268° |
| 2026-05-04 03:48 | 35.02415 | -89.97646 | 290 ft | 28 kts | 270° |
| 2026-05-04 03:48 | 35.02416 | -89.97826 | 294 ft | 14 kts | 269° |
| 2026-05-04 03:48 | 35.02441 | -89.97944 | 301 ft | 16 kts | 334° |
| 2026-05-04 03:48 | 35.02464 | -89.97973 | 303 ft | 19 kts | 125° |
| 2026-05-04 03:49 | 35.02543 | -89.97957 | 305 ft | 14 kts | 306° |
| 2026-05-04 03:49 | 35.02549 | -89.98115 | 314 ft | 28 kts | 329° |
| 2026-05-04 03:49 | 35.02636 | -89.98222 | 313 ft | 3 kts | 283° |
| 2026-05-04 03:49 | 35.02711 | -89.98397 | 313 ft | 31 kts | 342° |
| 2026-05-04 03:50 | 35.02958 | -89.98467 | 309 ft | 42 kts | 356° |
| 2026-05-04 03:50 | 35.03287 | -89.98462 | 309 ft | 51 kts | 356° |
| 2026-05-04 03:50 | 35.03661 | -89.98485 | 304 ft | 56 kts | 358° |
| 2026-05-04 03:50 | 35.04062 | -89.98496 | 294 ft | 55 kts | 0° |
| 2026-05-04 03:51 | 35.04460 | -89.98505 | 291 ft | 58 kts | 359° |
| 2026-05-04 03:51 | 35.04906 | -89.98512 | 292 ft | 88 kts | 359° |
| 2026-05-04 03:51 | 35.05645 | -89.98500 | 280 ft | 89 kts | 1° |
| 2026-05-04 03:51 | 35.06012 | -89.98384 | 286 ft | 34 kts | 13° |
| 2026-05-04 03:52 | 35.06021 | -89.98189 | 287 ft | 18 kts | 109° |
| 2026-05-04 03:52 | 35.06012 | -89.97977 | 292 ft | 33 kts | 93° |
| 2026-05-04 03:52 | 35.05942 | -89.97772 | 296 ft | 24 kts | 200° |
| 2026-05-04 03:52 | 35.05762 | -89.97781 | 301 ft | 18 kts | 179° |
| 2026-05-04 03:53 | 35.05700 | -89.97785 | 303 ft | 0 kts | 169° |
| 2026-05-04 03:54 | 35.05686 | -89.97774 | 304 ft | 7 kts | 136° |
| 2026-05-04 03:54 | 35.05671 | -89.97668 | 308 ft | 19 kts | 93° |
| 2026-05-04 03:54 | 35.05665 | -89.97367 | 303 ft | 29 kts | 91° |
| 2026-05-04 03:54 | 35.05661 | -89.97226 | 300 ft | 15 kts | 95° |
| 2026-05-04 03:55 | 35.05655 | -89.97037 | 298 ft | 30 kts | 93° |
| 2026-05-04 03:55 | 35.05636 | -89.96784 | 299 ft | 31 kts | 130° |
| 2026-05-04 03:55 | 35.05563 | -89.96918 | 297 ft | 17 kts | 281° |
| 2026-05-04 03:55 | 35.05563 | -89.96960 | 297 ft | 0 kts | 259° |
| 2026-05-04 03:56 | 35.05574 | -89.96972 | 297 ft | 15 kts | 4° |
| 2026-05-04 03:56 | 35.05655 | -89.97050 | 298 ft | 14 kts | 272° |
| 2026-05-04 03:56 | 35.05661 | -89.97246 | 301 ft | 25 kts | 275° |
| 2026-05-04 03:57 | 35.05668 | -89.97488 | 306 ft | 21 kts | 274° |
| 2026-05-04 03:57 | 35.05678 | -89.97715 | 307 ft | 25 kts | 278° |
| 2026-05-04 03:57 | 35.05846 | -89.97785 | 299 ft | 39 kts | 359° |
| 2026-05-04 03:57 | 35.06167 | -89.97788 | 283 ft | 52 kts | 359° |
| 2026-05-04 03:58 | 35.06573 | -89.97828 | 258 ft | 19 kts | 270° |
| 2026-05-04 03:58 | 35.06468 | -89.97914 | 262 ft | 26 kts | 214° |
| 2026-05-04 03:58 | 35.06316 | -89.98090 | 269 ft | 31 kts | 234° |
| 2026-05-04 03:59 | 35.06182 | -89.98310 | 278 ft | 25 kts | 235° |
| 2026-05-04 03:59 | 35.06128 | -89.98408 | 280 ft | 7 kts | 219° |
| 2026-05-04 03:59 | 35.06119 | -89.98414 | 280 ft | 0 kts | 206° |
| 2026-05-04 03:59 | 35.06117 | -89.98416 | 280 ft | 0 kts | 218° |
| 2026-05-04 04:00 | 35.06113 | -89.98420 | 280 ft | 3 kts | 233° |
| 2026-05-04 04:00 | 35.06119 | -89.98401 | 280 ft | 4 kts | 250° |
| 2026-05-04 04:00 | 35.06149 | -89.98354 | 279 ft | 7 kts | 251° |
| 2026-05-04 04:00 | 35.06123 | -89.98409 | 283 ft | 1 kts | 73° |
| 2026-05-04 04:01 | 35.06122 | -89.98412 | 282 ft | 4 kts | 56° |
| 2026-05-04 04:01 | 35.06113 | -89.98444 | 280 ft | 25 kts | 344° |
| 2026-05-04 04:01 | 35.06117 | -89.98709 | 278 ft | 34 kts | 207° |
| 2026-05-04 04:02 | 35.05970 | -89.98648 | 281 ft | 25 kts | 178° |
| 2026-05-04 04:02 | 35.05879 | -89.98647 | 281 ft | 0 kts | 175° |
| 2026-05-04 04:02 | 35.05714 | -89.98609 | 281 ft | 49 kts | 164° |